岡山グライダークラブ活動状況掲示板

岡山グライダークラブ
岡山市浦安南町639-1 岡南飛行場
 使用機:シャイベ式 SF25C型 ファルケ   JA2330
      ヴァレンティン式17E型 タイフーン  JA2342
 練習日:毎日曜日  クラブルーム:電話 086-265-1810
この掲示板は岡山グライダークラブの活動状況をお知らせする掲示板です。
!!!この掲示板は投稿規制をしています。!!!
クラブ関連各種情報は 岡山グライダークラブクラブルーム      を       .
  ブリーフイング情報は  岡山グライダークラブブリーフィングルーム  をご覧下さい。 .
※写真はクリックすると拡大して見ることが出来ます。
岡南飛行場へのアクセス等は 岡南飛行場管理事務所 をご覧ください。
クラブの ホームページ ができました。

!!!緊急事態宣言、まん延防止等重点措置の解除に伴い、見学者等の受入を再開します。なお、来所の際には、こちらを順守願います。

 
08月29日
by OGC at 2021/8/29(日) 11:27:14 No.20210829112337  削除コメント
1024 x 768 x 70,564バイト
No.1

08月29日
本日のリモート参加者
  会員       9名
  その他      0名


@本日の様子






METAR
RJBK 290000Z 25009KT FEW035CU SCT120AC 30/24 Q1013 A2994
RJOB 290000Z 29006KT 260V330 9999 FEW020 SCT045 28/23 Q1015
RJOT 290000Z 28007KT 9999 FEW020 29/23 Q1015
RJOA 290000Z 25003KT 200V290 9999 FEW015 BKN030 25/22 Q1016
TAF
RJOB 282307Z 2900/3006 21007KT 9999 FEW020 SCT045
RJOT 282307Z 2900/3006 27010KT 9999 FEW025
RJOA 282306Z 2900/3006 20005KT 9999 FEW025

岡山県の緊急事態宣言を受け、9月12日まで訓練活動を自粛することとしました。
そこで、本日、第15回リモートブリーフィングを開催しました。


集合 10:00 解散    10:30

本日のフライトはありません。

    << 戻る || ホームページ || 最新の掲示板へ